Time;durP1;ratioP1;P1;durP2;ratioP2;P2;SDS_P1;SDS_P2;PMS_P1;PMS_P2;Temp;Humidity;BMP_temperature;BMP_pressure;BME280_temperature;BME280_humidity;BME280_pressure;Samples;Min_cycle;Max_cycle;Signal;HPM_P1;HPM_P2
2022/06/29 00:01:50;;;;;;;3.07;2.70;;;24.60;99.90;;;;;;5010775;28;20371;-64
2022/06/29 00:04:18;;;;;;;6.70;3.30;;;24.60;99.90;;;;;;5014847;28;20187;-64
2022/06/29 00:06:44;;;;;;;6.90;3.43;;;24.60;99.90;;;;;;5013834;28;20576;-64
2022/06/29 00:09:10;;;;;;;3.63;3.10;;;24.60;99.90;;;;;;5015442;28;20447;-64
2022/06/29 00:11:36;;;;;;;10.97;3.23;;;24.60;99.90;;;;;;4995288;28;20195;-64
2022/06/29 00:14:01;;;;;;;4.20;3.40;;;24.60;99.90;;;;;;5017093;28;20184;-65
2022/06/29 00:16:27;;;;;;;6.43;3.93;;;24.60;99.90;;;;;;5013181;28;20227;-64
2022/06/29 00:18:52;;;;;;;7.93;3.70;;;24.50;99.90;;;;;;5012251;28;20287;-64
2022/06/29 00:21:18;;;;;;;4.60;4.07;;;24.50;99.90;;;;;;5009201;28;20188;-65
2022/06/29 00:23:45;;;;;;;7.40;3.40;;;24.50;99.90;;;;;;5013452;28;20267;-65
2022/06/29 00:26:10;;;;;;;5.93;3.33;;;24.50;99.90;;;;;;5012730;28;20184;-65
2022/06/29 00:28:36;;;;;;;3.50;3.20;;;24.40;99.90;;;;;;5011870;28;20481;-65
2022/06/29 00:31:01;;;;;;;5.30;3.33;;;24.40;99.90;;;;;;5013521;28;20311;-64
2022/06/29 00:33:27;;;;;;;4.77;3.73;;;24.40;99.90;;;;;;5009709;28;20299;-65
2022/06/29 00:35:53;;;;;;;6.03;3.47;;;24.40;99.90;;;;;;5014646;28;20700;-64
2022/06/29 00:38:18;;;;;;;4.87;3.00;;;24.30;99.90;;;;;;5012621;28;20184;-64
2022/06/29 00:40:44;;;;;;;4.10;3.70;;;24.30;99.90;;;;;;5030920;28;20196;-65
2022/06/29 00:43:10;;;;;;;7.93;3.53;;;24.30;99.90;;;;;;4997449;28;20180;-64
2022/06/29 00:45:36;;;;;;;4.90;3.10;;;24.20;99.90;;;;;;5013066;28;20271;-64
2022/06/29 00:48:01;;;;;;;4.90;3.53;;;24.20;99.90;;;;;;5012380;28;20173;-64
2022/06/29 00:50:30;;;;;;;3.73;3.23;;;24.00;99.90;;;;;;5011858;28;20258;-64
2022/06/29 00:53:03;;;;;;;4.70;3.43;;;24.00;99.90;;;;;;5013663;28;20235;-65
2022/06/29 00:55:31;;;;;;;3.50;3.20;;;24.10;99.90;;;;;;5009545;28;20458;-65
2022/06/29 00:58:00;;;;;;;3.40;3.10;;;24.10;99.90;;;;;;5009899;28;20874;-63
2022/06/29 01:00:26;;;;;;;3.63;3.33;;;24.10;99.90;;;;;;5009972;28;20457;-63
2022/06/29 01:02:52;;;;;;;3.57;3.20;;;24.10;99.90;;;;;;5013274;28;20461;-63
2022/06/29 01:05:17;;;;;;;3.30;3.00;;;24.10;99.90;;;;;;5011958;28;20419;-64
2022/06/29 01:07:44;;;;;;;3.47;3.17;;;24.10;99.90;;;;;;5013024;28;20208;-65
2022/06/29 01:10:10;;;;;;;3.87;3.40;;;24.10;99.90;;;;;;5012782;28;20450;-63
2022/06/29 01:12:35;;;;;;;3.40;3.10;;;24.00;99.90;;;;;;5009849;28;20471;-64
2022/06/29 01:15:01;;;;;;;4.40;3.70;;;23.90;99.90;;;;;;5011490;28;20200;-64
2022/06/29 01:17:26;;;;;;;4.27;3.30;;;23.90;99.90;;;;;;5011115;28;20429;-64
2022/06/29 01:19:52;;;;;;;4.13;3.30;;;23.90;99.90;;;;;;5008620;28;20624;-64
2022/06/29 01:22:20;;;;;;;4.00;3.10;;;23.80;99.90;;;;;;5011921;28;20224;-64
2022/06/29 01:24:47;;;;;;;6.47;3.47;;;23.70;99.90;;;;;;5000626;28;20181;-64
2022/06/29 01:27:14;;;;;;;4.17;3.43;;;23.70;99.90;;;;;;4998652;28;20435;-64
2022/06/29 01:29:39;;;;;;;4.20;3.50;;;23.60;99.90;;;;;;5009606;28;20529;-64
2022/06/29 01:32:06;;;;;;;6.70;3.80;;;23.60;99.90;;;;;;5011272;28;20435;-63
2022/06/29 01:34:33;;;;;;;4.83;3.47;;;23.50;99.90;;;;;;5015891;28;20239;-64
2022/06/29 01:36:59;;;;;;;5.37;4.00;;;23.50;99.90;;;;;;5010269;28;20550;-64
2022/06/29 01:39:26;;;;;;;4.43;3.30;;;23.40;99.90;;;;;;5006885;28;21034;-64
2022/06/29 01:41:52;;;;;;;4.30;3.27;;;23.50;99.90;;;;;;5011683;28;20965;-64
2022/06/29 01:44:18;;;;;;;3.63;3.03;;;23.50;99.90;;;;;;5009895;28;20482;-64
2022/06/29 01:46:44;;;;;;;6.40;3.90;;;23.40;99.90;;;;;;5016118;28;20243;-64
2022/06/29 01:49:09;;;;;;;3.97;3.57;;;23.30;99.90;;;;;;5010198;28;20474;-64
2022/06/29 01:51:36;;;;;;;3.20;2.90;;;23.30;99.90;;;;;;4999346;28;20181;-64
2022/06/29 01:54:01;;;;;;;7.00;4.00;;;23.30;99.90;;;;;;5012888;28;20211;-64
2022/06/29 01:56:27;;;;;;;3.53;3.23;;;23.20;99.90;;;;;;5014706;28;20545;-64
2022/06/29 01:58:53;;;;;;;3.80;3.37;;;23.30;99.90;;;;;;5017318;28;20256;-64
2022/06/29 02:01:18;;;;;;;4.00;3.60;;;23.40;99.90;;;;;;5017495;28;20268;-63
2022/06/29 02:03:44;;;;;;;5.47;3.17;;;23.40;99.90;;;;;;5014006;28;20222;-64
2022/06/29 02:06:10;;;;;;;8.67;3.73;;;23.40;99.90;;;;;;5014727;28;21860;-64
2022/06/29 02:08:37;;;;;;;6.10;3.50;;;23.50;99.90;;;;;;4995900;28;20996;-64
2022/06/29 02:11:03;;;;;;;4.60;3.40;;;23.50;99.90;;;;;;5011643;28;20435;-64
2022/06/29 02:13:29;;;;;;;4.40;3.50;;;23.40;99.90;;;;;;5012691;28;20473;-64
2022/06/29 02:15:54;;;;;;;3.77;3.40;;;23.30;99.90;;;;;;5015662;28;20776;-64
2022/06/29 02:18:20;;;;;;;7.00;3.30;;;23.10;99.90;;;;;;5015116;28;20428;-65
2022/06/29 02:36:20;;;;;;;6.40;3.80;;;23.30;99.90;;;;;;5018832;28;20502;-64
2022/06/29 02:38:46;;;;;;;4.17;3.53;;;23.30;99.90;;;;;;5021397;28;20949;-64
2022/06/29 02:41:12;;;;;;;4.13;3.73;;;23.40;99.90;;;;;;5016293;28;20180;-64
2022/06/29 02:43:38;;;;;;;4.33;3.33;;;23.30;99.90;;;;;;5014555;28;20959;-64
2022/06/29 02:46:03;;;;;;;5.23;3.77;;;23.30;99.90;;;;;;5014382;28;20185;-64
2022/06/29 02:48:29;;;;;;;3.67;3.37;;;23.30;99.90;;;;;;5014255;28;20184;-65
2022/06/29 02:50:55;;;;;;;7.43;4.10;;;23.30;99.90;;;;;;5014990;28;20267;-64
2022/06/29 02:53:20;;;;;;;7.20;3.70;;;23.30;99.90;;;;;;5013741;28;20562;-64
2022/06/29 02:55:46;;;;;;;5.13;3.90;;;23.20;99.90;;;;;;5014452;28;20193;-64
2022/06/29 02:58:11;;;;;;;3.60;3.30;;;23.30;99.90;;;;;;5013179;28;20263;-64
2022/06/29 03:00:37;;;;;;;4.67;3.67;;;23.30;99.90;;;;;;5013769;28;20219;-64
2022/06/29 03:03:02;;;;;;;4.27;3.87;;;23.40;99.90;;;;;;5012066;28;20260;-64
2022/06/29 03:05:28;;;;;;;4.03;3.73;;;23.30;99.90;;;;;;5014756;28;20300;-64
2022/06/29 03:07:54;;;;;;;4.00;3.40;;;23.40;99.90;;;;;;4992918;28;20188;-65
2022/06/29 03:10:19;;;;;;;4.00;3.60;;;23.40;99.90;;;;;;5011473;28;20208;-64
2022/06/29 03:12:45;;;;;;;7.50;3.57;;;23.40;99.90;;;;;;5009943;28;20189;-64
2022/06/29 03:15:10;;;;;;;5.33;3.60;;;23.40;99.90;;;;;;5012431;28;20769;-64
2022/06/29 03:17:36;;;;;;;5.00;3.87;;;23.40;99.90;;;;;;5011724;28;20984;-65
2022/06/29 03:20:04;;;;;;;3.93;3.10;;;23.40;99.90;;;;;;5011342;28;20288;-65
2022/06/29 03:22:30;;;;;;;5.87;3.60;;;23.40;99.90;;;;;;5012716;28;20200;-64
2022/06/29 03:24:56;;;;;;;7.57;3.87;;;23.40;99.90;;;;;;5012405;28;20416;-64
2022/06/29 03:27:22;;;;;;;4.50;3.10;;;23.40;99.90;;;;;;5015739;28;20450;-65
2022/06/29 03:29:47;;;;;;;6.37;3.50;;;23.40;99.90;;;;;;5010758;28;20299;-64
2022/06/29 03:32:13;;;;;;;4.60;3.57;;;23.40;99.90;;;;;;5015867;28;20189;-64
2022/06/29 03:34:38;;;;;;;3.27;2.97;;;23.50;99.90;;;;;;5015355;28;20215;-65
2022/06/29 03:37:04;;;;;;;5.10;3.90;;;23.50;99.90;;;;;;5012886;28;20201;-64
2022/06/29 03:39:30;;;;;;;3.30;3.00;;;23.40;99.90;;;;;;5015051;28;20199;-65
2022/06/29 03:41:55;;;;;;;5.33;3.70;;;23.40;99.90;;;;;;5011934;28;20211;-64
2022/06/29 03:44:21;;;;;;;3.50;3.10;;;23.40;99.90;;;;;;5013972;28;20192;-64
2022/06/29 03:46:46;;;;;;;4.20;3.33;;;23.40;99.90;;;;;;5009773;28;20627;-65
2022/06/29 03:49:12;;;;;;;4.23;3.27;;;23.40;99.90;;;;;;5012625;28;20594;-64
2022/06/29 03:51:37;;;;;;;4.30;3.63;;;23.40;99.90;;;;;;5011529;28;20564;-64
2022/06/29 03:54:03;;;;;;;3.23;2.93;;;23.40;99.90;;;;;;5014475;28;20200;-63
2022/06/29 03:56:28;;;;;;;5.03;3.30;;;23.30;99.90;;;;;;5014002;28;20205;-64
2022/06/29 03:58:54;;;;;;;4.23;3.37;;;23.40;99.90;;;;;;5027301;28;20228;-64
2022/06/29 04:01:20;;;;;;;3.53;3.23;;;23.40;99.90;;;;;;5012857;28;20268;-65
2022/06/29 04:03:45;;;;;;;3.00;2.73;;;23.30;99.90;;;;;;4998505;28;20239;-64
2022/06/29 04:06:13;;;;;;;5.33;3.23;;;23.40;99.90;;;;;;5009950;28;20199;-64
2022/06/29 04:08:39;;;;;;;5.40;3.20;;;23.40;99.90;;;;;;5014592;28;20795;-65
2022/06/29 04:11:48;;;;;;;3.83;3.30;;;23.40;99.90;;;;;;5015670;28;20482;-65
2022/06/29 04:13:54;;;;;;;4.50;3.03;;;23.40;99.90;;;;;;5010575;28;20454;-65
2022/06/29 04:16:20;;;;;;;3.40;3.10;;;23.40;99.90;;;;;;5011835;28;20461;-65
2022/06/29 04:18:46;;;;;;;3.53;3.23;;;23.40;99.90;;;;;;5011010;28;20455;-65
2022/06/29 04:21:11;;;;;;;3.40;3.10;;;23.30;99.90;;;;;;5013853;28;20242;-65
2022/06/29 04:23:37;;;;;;;3.83;3.20;;;23.30;99.90;;;;;;4994868;28;20176;-64
2022/06/29 04:26:02;;;;;;;5.60;3.30;;;23.30;99.90;;;;;;5010018;28;20566;-64
2022/06/29 04:28:28;;;;;;;5.70;3.77;;;23.30;99.90;;;;;;5010850;28;20219;-64
2022/06/29 04:30:54;;;;;;;5.23;4.17;;;23.30;99.90;;;;;;5009444;28;20555;-64
2022/06/29 04:33:19;;;;;;;4.40;4.00;;;23.20;99.90;;;;;;4991569;28;20212;-64
2022/06/29 04:35:45;;;;;;;5.00;3.80;;;23.10;99.90;;;;;;5011627;28;20209;-64
2022/06/29 04:38:11;;;;;;;6.07;3.90;;;23.10;99.90;;;;;;5015131;28;20261;-64
2022/06/29 04:40:36;;;;;;;5.63;4.20;;;23.10;99.90;;;;;;5010612;28;20200;-65
2022/06/29 04:43:02;;;;;;;7.07;3.97;;;23.10;99.90;;;;;;5013017;28;20180;-64
2022/06/29 04:48:11;;;;;;;4.60;3.93;;;23.20;99.90;;;;;;5009716;28;20295;-64
2022/06/29 04:50:37;;;;;;;6.40;4.00;;;23.20;99.90;;;;;;4979133;28;1052588;-63
2022/06/29 04:53:03;;;;;;;6.50;4.83;;;23.00;99.90;;;;;;5015965;28;20189;-63
2022/06/29 04:55:29;;;;;;;4.80;3.63;;;22.90;99.90;;;;;;5009161;28;20182;-64
2022/06/29 04:57:55;;;;;;;5.33;4.27;;;22.90;99.90;;;;;;5012318;28;20188;-64
2022/06/29 05:00:21;;;;;;;4.33;3.53;;;22.90;99.90;;;;;;5009014;28;20455;-65
2022/06/29 05:02:46;;;;;;;5.80;4.13;;;22.80;99.90;;;;;;5011744;28;20439;-63
2022/06/29 05:05:12;;;;;;;4.23;3.83;;;22.80;99.90;;;;;;5012627;28;20757;-65
2022/06/29 05:07:37;;;;;;;4.73;4.13;;;22.90;99.90;;;;;;5014325;28;20203;-65
2022/06/29 05:10:04;;;;;;;5.03;4.33;;;23.10;99.90;;;;;;5014678;28;20700;-64
2022/06/29 05:12:29;;;;;;;4.40;4.00;;;23.00;99.90;;;;;;5014015;28;20196;-65
2022/06/29 05:14:55;;;;;;;4.30;3.90;;;23.10;99.90;;;;;;5009804;28;20446;-64
2022/06/29 05:17:20;;;;;;;5.57;3.73;;;23.10;99.90;;;;;;5013800;28;20216;-65
2022/06/29 05:19:46;;;;;;;4.07;3.77;;;23.20;99.90;;;;;;5016196;28;20290;-65
2022/06/29 05:22:12;;;;;;;4.40;3.20;;;23.20;99.90;;;;;;5016748;28;20244;-64
2022/06/29 05:24:37;;;;;;;4.67;3.70;;;23.00;99.90;;;;;;5014156;28;20430;-65
2022/06/29 05:27:05;;;;;;;6.33;4.20;;;22.90;99.90;;;;;;5012902;28;20666;-64
2022/06/29 05:29:31;;;;;;;5.17;4.67;;;22.90;99.90;;;;;;5006351;28;20223;-65
2022/06/29 05:31:56;;;;;;;5.83;4.03;;;22.90;99.90;;;;;;5006951;28;20979;-64
2022/06/29 05:34:22;;;;;;;6.50;4.67;;;22.90;99.90;;;;;;5012931;28;20438;-64
2022/06/29 05:36:47;;;;;;;4.37;3.57;;;22.90;99.90;;;;;;5017325;28;20212;-66
2022/06/29 05:39:13;;;;;;;5.53;4.97;;;22.80;99.90;;;;;;5015993;28;20673;-65
2022/06/29 05:41:39;;;;;;;5.60;3.87;;;22.80;99.90;;;;;;5012446;28;20196;-66
2022/06/29 05:44:04;;;;;;;5.80;3.50;;;22.90;99.90;;;;;;5010480;28;20172;-66
2022/06/29 05:46:31;;;;;;;4.20;3.80;;;22.90;99.90;;;;;;5010409;28;20634;-66
2022/06/29 05:48:56;;;;;;;5.33;3.80;;;22.90;99.90;;;;;;5011612;28;20209;-66
2022/06/29 05:51:22;;;;;;;4.30;3.87;;;22.80;99.90;;;;;;5011556;28;20975;-66
2022/06/29 05:53:49;;;;;;;4.10;3.80;;;22.90;99.90;;;;;;5015336;28;20189;-65
2022/06/29 05:56:15;;;;;;;6.30;5.50;;;23.00;99.90;;;;;;5011739;28;20232;-66
2022/06/29 05:58:41;;;;;;;5.67;5.17;;;22.90;99.90;;;;;;5012375;28;20974;-64
2022/06/29 06:01:09;;;;;;;6.73;4.90;;;22.90;99.90;;;;;;5011743;28;20420;-65
2022/06/29 06:03:35;;;;;;;6.90;4.87;;;22.90;99.90;;;;;;5013627;28;20610;-65
2022/06/29 06:06:00;;;;;;;5.57;5.07;;;22.80;99.90;;;;;;5013534;28;20990;-65
2022/06/29 06:08:26;;;;;;;6.73;6.00;;;22.90;99.90;;;;;;5015902;28;20475;-65
2022/06/29 06:10:52;;;;;;;5.70;4.77;;;23.00;99.90;;;;;;5017263;28;20185;-64
2022/06/29 06:13:17;;;;;;;5.93;5.30;;;23.10;99.90;;;;;;5014639;28;20188;-64
2022/06/29 06:15:43;;;;;;;7.40;6.07;;;23.10;99.90;;;;;;5014388;28;20260;-64
2022/06/29 06:18:08;;;;;;;9.20;5.50;;;23.00;99.90;;;;;;5016283;28;20183;-65
2022/06/29 06:20:34;;;;;;;5.70;5.20;;;23.00;99.90;;;;;;5016407;28;20243;-64
2022/06/29 06:23:00;;;;;;;5.43;4.93;;;23.00;99.90;;;;;;5016255;28;20181;-66
2022/06/29 06:25:25;;;;;;;10.67;7.10;;;23.10;99.90;;;;;;5018382;28;20583;-65
2022/06/29 06:27:51;;;;;;;7.47;6.77;;;23.10;99.90;;;;;;5013767;28;20181;-66
2022/06/29 06:30:16;;;;;;;5.73;5.23;;;23.20;99.90;;;;;;5013066;28;20205;-65
2022/06/29 06:32:42;;;;;;;5.83;5.27;;;23.20;99.90;;;;;;5013599;28;20551;-66
2022/06/29 06:35:08;;;;;;;5.77;5.27;;;23.00;99.90;;;;;;5018344;28;20185;-66
2022/06/29 06:37:34;;;;;;;8.10;5.50;;;23.00;99.90;;;;;;5012260;28;20204;-66
2022/06/29 06:42:44;;;;;;;6.43;5.43;;;23.10;99.90;;;;;;5012634;28;20705;-66
2022/06/29 06:45:09;;;;;;;7.73;6.00;;;23.10;99.90;;;;;;5014235;28;20456;-67
2022/06/29 06:47:35;;;;;;;8.30;6.30;;;23.10;99.90;;;;;;4997794;28;20182;-68
2022/06/29 06:50:00;;;;;;;5.70;5.17;;;23.20;99.90;;;;;;5014237;28;20227;-68
2022/06/29 06:52:26;;;;;;;6.53;5.70;;;23.20;99.90;;;;;;5013677;28;20196;-68
2022/06/29 06:54:52;;;;;;;12.50;7.23;;;23.30;99.90;;;;;;5013747;28;20768;-68
2022/06/29 06:57:17;;;;;;;7.33;5.80;;;23.30;99.90;;;;;;5016533;28;20683;-68
2022/06/29 06:59:43;;;;;;;7.40;5.30;;;23.40;99.90;;;;;;5013345;28;20841;-68
2022/06/29 07:02:08;;;;;;;5.97;5.37;;;23.40;99.90;;;;;;5015195;28;20181;-69
2022/06/29 07:04:34;;;;;;;6.13;5.50;;;23.40;99.90;;;;;;5011499;28;20196;-69
2022/06/29 07:06:59;;;;;;;8.63;6.53;;;23.40;99.90;;;;;;5013452;28;20199;-66
2022/06/29 07:09:25;;;;;;;6.40;5.33;;;23.30;99.90;;;;;;5016174;28;20224;-67
2022/06/29 07:11:51;;;;;;;6.50;5.20;;;23.40;99.90;;;;;;5012548;28;20185;-67
2022/06/29 07:14:17;;;;;;;7.07;6.37;;;23.50;99.90;;;;;;5014664;28;20189;-67
2022/06/29 07:16:42;;;;;;;7.57;5.90;;;23.60;99.90;;;;;;5012123;28;20201;-66
2022/06/29 07:19:08;;;;;;;6.10;4.87;;;23.70;99.90;;;;;;5014239;28;20755;-67
2022/06/29 07:21:34;;;;;;;6.50;4.93;;;23.80;99.90;;;;;;5012416;28;21198;-67
2022/06/29 07:23:59;;;;;;;6.17;5.57;;;23.90;99.90;;;;;;5014652;28;20177;-67
2022/06/29 07:26:26;;;;;;;7.13;4.80;;;24.00;99.90;;;;;;5014167;28;20208;-66
2022/06/29 07:28:52;;;;;;;5.00;4.60;;;24.00;99.90;;;;;;5013045;28;20337;-65
2022/06/29 07:31:18;;;;;;;5.27;4.87;;;24.00;99.90;;;;;;5016283;28;20531;-66
2022/06/29 07:33:44;;;;;;;5.30;4.90;;;24.10;99.90;;;;;;5017787;28;20435;-66
2022/06/29 07:36:09;;;;;;;9.23;4.93;;;24.20;99.90;;;;;;5008471;28;20257;-69
2022/06/29 07:38:35;;;;;;;4.97;4.50;;;24.20;99.90;;;;;;5011168;28;20189;-68
2022/06/29 07:41:01;;;;;;;5.50;4.80;;;24.30;99.90;;;;;;5012959;28;20184;-66
2022/06/29 07:43:30;;;;;;;5.23;4.77;;;24.20;99.90;;;;;;5014038;28;20428;-67
2022/06/29 07:45:57;;;;;;;7.73;4.80;;;24.40;99.90;;;;;;5017402;28;20185;-66
2022/06/29 07:48:26;;;;;;;4.93;4.53;;;24.50;99.90;;;;;;5010352;28;20502;-68
2022/06/29 07:50:52;;;;;;;5.83;4.77;;;24.60;99.90;;;;;;5011269;28;20467;-67
2022/06/29 07:53:19;;;;;;;5.20;4.70;;;24.60;99.90;;;;;;5016799;28;20470;-67
2022/06/29 07:55:45;;;;;;;6.27;5.37;;;24.50;99.90;;;;;;4999496;28;20443;-68
2022/06/29 07:58:12;;;;;;;5.73;5.23;;;24.50;99.90;;;;;;5031176;28;20805;-67
2022/06/29 08:00:38;;;;;;;7.87;5.50;;;24.60;99.90;;;;;;5012204;28;20204;-67
2022/06/29 08:03:04;;;;;;;7.57;5.00;;;24.50;99.90;;;;;;5010427;28;20436;-66
2022/06/29 08:05:29;;;;;;;6.03;5.00;;;24.40;99.90;;;;;;5005938;28;20208;-66
2022/06/29 08:07:55;;;;;;;5.50;5.00;;;24.40;99.90;;;;;;5010494;28;20196;-65
2022/06/29 08:10:21;;;;;;;4.63;4.23;;;24.40;99.90;;;;;;5001761;28;20292;-65
2022/06/29 08:12:47;;;;;;;9.70;5.00;;;24.40;99.90;;;;;;5010966;28;20901;-66
2022/06/29 08:15:12;;;;;;;7.33;5.37;;;24.40;99.90;;;;;;5010926;28;20184;-68
2022/06/29 08:17:38;;;;;;;5.77;5.17;;;24.30;99.90;;;;;;5012178;28;20653;-68
2022/06/29 08:20:04;;;;;;;4.67;4.27;;;24.40;99.90;;;;;;5014432;28;20196;-68
2022/06/29 08:22:31;;;;;;;6.63;4.60;;;24.70;99.90;;;;;;5010614;28;20235;-68
2022/06/29 08:24:56;;;;;;;6.80;4.60;;;24.80;99.90;;;;;;5010765;28;20443;-68
2022/06/29 08:27:23;;;;;;;7.73;5.33;;;24.90;99.90;;;;;;5009142;28;20533;-70
2022/06/29 08:29:49;;;;;;;5.27;4.77;;;25.00;99.90;;;;;;5013968;28;20719;-68
2022/06/29 08:32:15;;;;;;;5.53;5.13;;;25.10;99.90;;;;;;5013343;28;20432;-68
2022/06/29 08:34:41;;;;;;;5.13;4.60;;;25.20;99.90;;;;;;5013324;28;20432;-65
2022/06/29 08:37:07;;;;;;;5.70;5.20;;;25.30;99.90;;;;;;5012401;28;20467;-66
2022/06/29 08:39:33;;;;;;;5.80;5.20;;;25.20;99.90;;;;;;4993676;28;20637;-66
2022/06/29 08:42:04;;;;;;;5.60;5.10;;;25.20;99.90;;;;;;5017220;28;20180;-67
2022/06/29 08:44:36;;;;;;;6.57;5.20;;;25.20;99.90;;;;;;5010716;28;20440;-67
2022/06/29 08:47:03;;;;;;;5.10;4.60;;;25.20;99.90;;;;;;5012068;28;20445;-68
2022/06/29 08:49:30;;;;;;;6.10;5.27;;;25.30;99.90;;;;;;5013674;28;20455;-68
2022/06/29 08:51:56;;;;;;;5.43;4.63;;;25.20;99.90;;;;;;5010658;28;20427;-68
2022/06/29 08:54:25;;;;;;;6.07;4.80;;;25.30;99.90;;;;;;5014601;28;20471;-67
2022/06/29 08:56:53;;;;;;;5.57;5.10;;;25.40;99.90;;;;;;5016803;28;20984;-67
2022/06/29 08:59:21;;;;;;;6.70;4.60;;;25.40;99.90;;;;;;5016563;28;20869;-67
2022/06/29 09:01:47;;;;;;;5.80;5.20;;;25.30;99.90;;;;;;5018788;28;20432;-66
2022/06/29 09:04:13;;;;;;;5.17;4.63;;;25.30;99.90;;;;;;5001635;28;20457;-67
2022/06/29 09:06:39;;;;;;;5.20;4.70;;;25.40;99.90;;;;;;5015668;28;20459;-66
2022/06/29 09:09:04;;;;;;;6.30;5.70;;;25.50;99.90;;;;;;5014971;28;20201;-66
2022/06/29 09:11:30;;;;;;;5.87;5.20;;;25.60;99.90;;;;;;5016958;28;20620;-66
2022/06/29 09:14:15;;;;;;;7.70;5.33;;;25.60;99.90;;;;;;5013278;28;20290;-66
2022/06/29 09:16:57;;;;;;;5.67;4.80;;;25.70;99.90;;;;;;5017514;28;20465;-66
2022/06/29 09:19:29;;;;;;;5.87;5.27;;;25.50;99.90;;;;;;5013589;28;20446;-66
2022/06/29 09:21:57;;;;;;;5.50;5.00;;;25.50;99.90;;;;;;5017074;28;20420;-65
2022/06/29 09:24:30;;;;;;;6.03;5.37;;;25.50;99.90;;;;;;5016357;28;21214;-65
2022/06/29 09:26:58;;;;;;;5.30;4.80;;;25.50;99.90;;;;;;5015460;28;20435;-65
2022/06/29 09:29:26;;;;;;;10.83;5.03;;;25.60;99.90;;;;;;5016595;28;20450;-66
2022/06/29 09:32:07;;;;;;;5.60;5.00;;;25.60;99.90;;;;;;5016262;28;20971;-65
2022/06/29 09:34:34;;;;;;;5.00;4.57;;;25.60;99.90;;;;;;5015803;28;20476;-67
2022/06/29 09:37:01;;;;;;;5.00;4.60;;;25.70;99.90;;;;;;5015475;28;21042;-65
2022/06/29 09:39:45;;;;;;;4.80;4.40;;;25.80;99.90;;;;;;5006391;28;21198;-66
2022/06/29 09:42:13;;;;;;;5.30;4.60;;;25.80;99.90;;;;;;5018022;28;20442;-68
2022/06/29 09:44:39;;;;;;;5.97;4.57;;;25.80;99.90;;;;;;4999464;28;20926;-66
2022/06/29 09:47:16;;;;;;;5.00;4.50;;;26.00;99.90;;;;;;5013160;28;20510;-66
2022/06/29 09:49:46;;;;;;;5.63;5.20;;;26.00;99.90;;;;;;5015253;28;20311;-66
2022/06/29 09:52:14;;;;;;;5.83;4.40;;;26.00;99.90;;;;;;5014702;28;20447;-66
2022/06/29 09:55:06;;;;;;;4.90;4.47;;;26.00;99.90;;;;;;5015395;28;20527;-67
2022/06/29 09:57:35;;;;;;;6.20;4.10;;;26.10;99.90;;;;;;5016486;28;20576;-66
2022/06/29 10:02:50;;;;;;;7.20;6.50;;;26.20;99.90;;;;;;5016802;28;20430;-66
2022/06/29 10:05:21;;;;;;;5.07;4.57;;;26.10;99.90;;;;;;5017336;28;20419;-66
2022/06/29 10:07:48;;;;;;;5.97;4.97;;;26.10;99.90;;;;;;5015063;28;20435;-67
2022/06/29 10:10:20;;;;;;;5.17;4.57;;;26.00;99.90;;;;;;5014361;28;20558;-67
2022/06/29 10:16:07;;;;;;;6.03;4.50;;;26.20;99.90;;;;;;5014170;28;20891;-66
2022/06/29 10:18:44;;;;;;;5.37;4.50;;;26.30;99.90;;;;;;5017573;28;20497;-65
2022/06/29 10:21:25;;;;;;;5.33;4.93;;;26.40;99.90;;;;;;5013247;28;20601;-65
2022/06/29 10:23:55;;;;;;;5.67;5.13;;;26.40;99.90;;;;;;5016529;28;20523;-66
2022/06/29 10:26:31;;;;;;;5.43;4.30;;;26.40;99.90;;;;;;5018647;28;20432;-66
2022/06/29 10:29:06;;;;;;;5.20;4.80;;;26.40;99.90;;;;;;5011842;28;20455;-69
2022/06/29 10:32:04;;;;;;;4.67;4.27;;;26.50;99.90;;;;;;5016224;28;20797;-68
2022/06/29 10:37:11;;;;;;;5.40;4.90;;;26.50;99.90;;;;;;5013691;28;20471;-68
2022/06/29 10:39:49;;;;;;;5.10;4.70;;;26.40;99.90;;;;;;5016330;28;20192;-67
2022/06/29 10:45:21;;;;;;;10.80;4.30;;;26.40;99.90;;;;;;5016582;28;20502;-69
2022/06/29 10:47:56;;;;;;;5.80;4.83;;;26.50;99.90;;;;;;5018099;28;20497;-69
2022/06/29 10:50:26;;;;;;;4.73;4.23;;;26.50;99.90;;;;;;5016507;28;21064;-68
2022/06/29 10:52:54;;;;;;;5.13;4.70;;;26.40;99.90;;;;;;5012574;28;20562;-67
2022/06/29 10:55:21;;;;;;;4.73;4.33;;;26.40;99.90;;;;;;5016656;28;20430;-68
2022/06/29 10:57:47;;;;;;;5.30;4.73;;;26.50;99.90;;;;;;5013548;28;20470;-67
2022/06/29 11:00:17;;;;;;;5.97;4.20;;;26.50;99.90;;;;;;5014932;28;20554;-68
2022/06/29 11:02:44;;;;;;;5.33;4.90;;;26.60;99.90;;;;;;5016099;28;20646;-68
2022/06/29 11:05:10;;;;;;;5.77;5.17;;;26.50;99.90;;;;;;5014421;28;20826;-68
2022/06/29 11:13:26;;;;;;;6.20;5.00;;;26.60;99.90;;;;;;4950665;28;20489;-67
2022/06/29 11:15:55;;;;;;;5.40;4.90;;;26.80;99.90;;;;;;4988900;28;20960;-68
2022/06/29 11:18:27;;;;;;;6.40;4.20;;;26.80;99.90;;;;;;5011166;28;21172;-67
2022/06/29 11:20:53;;;;;;;4.47;4.07;;;27.00;99.90;;;;;;5012634;28;21022;-69
2022/06/29 11:23:21;;;;;;;5.47;4.60;;;27.00;99.90;;;;;;5012792;28;20432;-67
2022/06/29 11:25:49;;;;;;;4.13;3.83;;;27.20;99.90;;;;;;5010156;28;20448;-67
2022/06/29 11:28:19;;;;;;;5.10;3.83;;;27.30;99.90;;;;;;5013439;28;22345;-67
2022/06/29 11:31:04;;;;;;;4.30;3.90;;;27.30;99.90;;;;;;5013767;28;20459;-68
2022/06/29 11:33:32;;;;;;;3.73;3.43;;;27.40;99.90;;;;;;5014364;28;20439;-67
2022/06/29 11:36:09;;;;;;;4.57;4.07;;;27.60;99.90;;;;;;5013317;28;20467;-68
2022/06/29 11:38:40;;;;;;;3.77;3.47;;;27.70;99.90;;;;;;5010019;28;20922;-68
2022/06/29 11:41:17;;;;;;;4.70;4.30;;;27.90;99.90;;;;;;5003861;28;20436;-68
2022/06/29 11:43:44;;;;;;;4.40;4.00;;;28.20;99.90;;;;;;5015843;28;20426;-67
2022/06/29 11:46:21;;;;;;;4.40;4.00;;;28.10;99.90;;;;;;5012545;28;20431;-66
2022/06/29 11:51:59;;;;;;;4.60;4.20;;;28.70;99.90;;;;;;5015677;28;20800;-66
2022/06/29 11:54:48;;;;;;;4.63;3.57;;;28.90;99.90;;;;;;5013028;28;20489;-66
2022/06/29 11:57:17;;;;;;;4.20;3.80;;;29.40;99.90;;;;;;5013401;28;20621;-66
2022/06/29 11:59:44;;;;;;;5.47;4.33;;;29.60;99.90;;;;;;5009363;28;20456;-65
2022/06/29 12:02:12;;;;;;;5.73;4.43;;;29.90;99.90;;;;;;4995265;28;20435;-67
2022/06/29 12:04:38;;;;;;;4.40;4.00;;;29.90;99.90;;;;;;5013486;28;20438;-67
2022/06/29 12:07:18;;;;;;;5.50;4.13;;;29.80;99.90;;;;;;5016872;28;20434;-67
2022/06/29 12:09:53;;;;;;;4.63;4.23;;;29.80;99.90;;;;;;5012993;28;20448;-67
2022/06/29 12:12:19;;;;;;;7.83;4.10;;;30.20;99.90;;;;;;5012401;28;20448;-69
2022/06/29 12:14:45;;;;;;;4.87;4.47;;;31.10;99.90;;;;;;5013078;28;20441;-67
2022/06/29 12:17:13;;;;;;;5.77;4.23;;;31.40;99.90;;;;;;5011908;28;20200;-67
2022/06/29 12:19:38;;;;;;;4.10;3.80;;;32.10;98.40;;;;;;5010155;28;20444;-66
2022/06/29 12:22:04;;;;;;;4.50;4.10;;;32.20;95.90;;;;;;5009642;28;20443;-66
2022/06/29 12:24:30;;;;;;;4.57;4.17;;;32.40;96.10;;;;;;5014853;28;20638;-65
2022/06/29 12:26:56;;;;;;;4.77;4.33;;;33.70;94.10;;;;;;5009714;28;20196;-68
2022/06/29 12:29:21;;;;;;;5.00;3.90;;;34.90;91.60;;;;;;5010967;28;20216;-66
2022/06/29 12:31:47;;;;;;;4.83;4.43;;;36.20;90.40;;;;;;5011877;28;20177;-68
2022/06/29 12:34:15;;;;;;;4.90;4.50;;;36.30;84.20;;;;;;5011542;28;20228;-67
2022/06/29 12:36:41;;;;;;;4.90;4.40;;;36.70;80.70;;;;;;5013955;28;20484;-67
2022/06/29 12:39:07;;;;;;;4.50;4.10;;;37.90;75.10;;;;;;5010856;28;20501;-68
2022/06/29 12:41:35;;;;;;;4.80;4.40;;;37.90;72.10;;;;;;5013072;28;20426;-67
2022/06/29 12:44:02;;;;;;;3.90;3.60;;;38.90;68.30;;;;;;5016929;28;20431;-67
2022/06/29 12:46:29;;;;;;;4.47;4.10;;;38.50;63.90;;;;;;5019857;28;20438;-68
2022/06/29 12:48:55;;;;;;;4.67;4.27;;;38.80;63.10;;;;;;5010664;28;20456;-67
2022/06/29 12:51:21;;;;;;;4.23;3.83;;;39.40;61.10;;;;;;5013672;28;20439;-67
2022/06/29 12:53:47;;;;;;;4.60;4.20;;;39.40;59.70;;;;;;5011022;28;20955;-67
2022/06/29 12:56:13;;;;;;;4.77;4.37;;;38.10;58.10;;;;;;5012933;28;20292;-66
2022/06/29 12:58:39;;;;;;;5.20;4.50;;;36.80;60.30;;;;;;5018101;28;20418;-67
2022/06/29 13:01:05;;;;;;;4.67;4.20;;;37.10;61.20;;;;;;5013669;28;20692;-68
2022/06/29 13:03:31;;;;;;;4.70;4.30;;;35.00;64.10;;;;;;5010452;28;20180;-68
2022/06/29 13:05:56;;;;;;;5.20;4.73;;;34.20;67.70;;;;;;5009306;28;20444;-68
2022/06/29 13:08:22;;;;;;;4.50;4.10;;;33.40;70.00;;;;;;5012057;28;20220;-67
2022/06/29 13:10:48;;;;;;;5.00;4.50;;;32.70;72.10;;;;;;5010414;28;20177;-67
2022/06/29 13:13:13;;;;;;;4.77;4.27;;;32.00;75.20;;;;;;5011210;28;20213;-68
2022/06/29 13:15:39;;;;;;;4.80;4.33;;;33.10;75.10;;;;;;5009334;28;20193;-67
2022/06/29 13:18:04;;;;;;;4.70;4.30;;;34.30;73.00;;;;;;5012313;28;20213;-66
2022/06/29 13:20:30;;;;;;;6.67;4.20;;;34.90;71.70;;;;;;5015499;28;20208;-66
2022/06/29 13:22:56;;;;;;;4.43;4.10;;;34.70;69.10;;;;;;5015448;28;20211;-66
2022/06/29 13:25:21;;;;;;;5.10;4.70;;;35.40;69.60;;;;;;5012740;28;20182;-68
2022/06/29 13:27:48;;;;;;;4.47;4.10;;;36.30;68.60;;;;;;5014665;28;20579;-68